Terminal Aerodrome Forecast
Issued by NWS Sterling, VA

Home | Current Version | Previous Version | Text Only | Print | Product List | Glossary On
Versions: 1 2 3 4 5 6 7 8 9 10 11 12 13 14 15
000
FTUS41 KLWX 030540 RRA
TAFMRB
TAF
KMRB 030540Z 0306/0406 35003KT P6SM SKC
     FM031600 14005KT 2SM -SN OVC040
     FM031800 13005KT 1 1/2SM -FZRAPL BR OVC015
     FM032000 15006KT 1 1/2SM -FZRA BR OVC007
     FM040400 22006KT 4SM BR OVC012=

USA.gov is the U.S. government's official web portal to all federal, state and local government web resources and services.